Time;durP1;ratioP1;P1;durP2;ratioP2;P2;SDS_P1;SDS_P2;PMS_P1;PMS_P2;Temp;Humidity;BMP_temperature;BMP_pressure;BME280_temperature;BME280_humidity;BME280_pressure;Samples;Min_cycle;Max_cycle;Signal;HPM_P1;HPM_P2
2021/03/09 00:00:01;;;;;;;9.50;6.37;;;0.80;99.90;;;;;;4988294;28;20459;-74
2021/03/09 00:02:27;;;;;;;6.57;5.47;;;0.80;99.90;;;;;;4988596;28;20183;-74
2021/03/09 00:04:53;;;;;;;10.17;7.00;;;0.80;99.90;;;;;;4990964;28;20435;-74
2021/03/09 00:07:18;;;;;;;6.97;6.03;;;0.80;99.90;;;;;;4991874;28;20177;-74
2021/03/09 00:09:45;;;;;;;8.23;6.57;;;0.80;99.90;;;;;;4989467;28;20219;-74
2021/03/09 00:12:10;;;;;;;9.53;6.10;;;0.80;99.90;;;;;;4989633;28;20203;-74
2021/03/09 00:14:36;;;;;;;9.73;6.30;;;0.80;99.90;;;;;;4993394;28;20493;-74
2021/03/09 00:17:02;;;;;;;8.37;5.73;;;0.80;99.90;;;;;;4988912;28;20187;-74
2021/03/09 00:19:27;;;;;;;7.93;6.70;;;0.80;99.90;;;;;;4991551;28;20183;-74
2021/03/09 00:21:53;;;;;;;6.53;5.93;;;0.80;99.90;;;;;;4991303;28;20191;-74
2021/03/09 00:24:19;;;;;;;7.20;6.50;;;0.80;99.90;;;;;;4990836;28;20186;-74
2021/03/09 00:26:44;;;;;;;7.80;5.13;;;0.70;99.90;;;;;;4989865;28;20193;-74
2021/03/09 00:29:10;;;;;;;6.03;5.50;;;0.70;99.90;;;;;;4992179;28;20301;-74
2021/03/09 00:31:36;;;;;;;6.07;5.47;;;0.70;99.90;;;;;;4988841;28;20179;-74
2021/03/09 00:34:02;;;;;;;5.20;4.80;;;0.70;99.90;;;;;;4992059;28;20248;-74
2021/03/09 00:36:27;;;;;;;6.47;5.23;;;0.70;99.90;;;;;;4983071;28;20581;-74
2021/03/09 00:38:53;;;;;;;9.50;6.50;;;0.70;99.90;;;;;;4991201;28;20434;-74
2021/03/09 00:41:19;;;;;;;6.60;5.60;;;0.70;99.90;;;;;;4986726;28;20373;-74
2021/03/09 00:43:44;;;;;;;6.80;5.53;;;0.70;99.90;;;;;;4988665;28;20190;-74
2021/03/09 00:46:10;;;;;;;5.47;4.70;;;0.70;99.90;;;;;;4992173;28;20189;-74
2021/03/09 00:48:39;;;;;;;7.47;5.43;;;0.70;99.90;;;;;;4971329;28;655479;-74
2021/03/09 00:51:06;;;;;;;5.97;5.40;;;0.70;99.90;;;;;;4991148;28;20181;-74
2021/03/09 00:53:32;;;;;;;6.87;5.13;;;0.70;99.90;;;;;;4991818;28;20478;-74
2021/03/09 00:55:58;;;;;;;5.10;4.60;;;0.70;99.90;;;;;;4993740;28;20458;-74
2021/03/09 00:58:23;;;;;;;5.13;4.20;;;0.60;99.90;;;;;;4990562;28;20300;-75
2021/03/09 01:00:49;;;;;;;7.37;5.27;;;0.70;99.90;;;;;;4988535;28;20779;-74
2021/03/09 01:03:15;;;;;;;8.13;4.57;;;0.70;99.90;;;;;;4992451;28;20515;-74
2021/03/09 01:05:41;;;;;;;5.27;4.13;;;0.70;99.90;;;;;;4988947;28;20202;-75
2021/03/09 01:08:07;;;;;;;4.60;3.87;;;0.70;99.90;;;;;;4992989;28;20172;-75
2021/03/09 01:10:33;;;;;;;3.83;3.53;;;0.70;99.90;;;;;;4990567;28;20480;-74
2021/03/09 01:12:58;;;;;;;4.43;3.50;;;0.70;99.90;;;;;;4992143;28;20617;-74
2021/03/09 01:15:24;;;;;;;5.30;3.80;;;0.70;99.90;;;;;;4992517;28;20461;-74
2021/03/09 01:17:50;;;;;;;3.83;3.43;;;0.70;99.90;;;;;;4992949;28;20238;-75
2021/03/09 01:20:15;;;;;;;6.70;3.70;;;0.70;99.90;;;;;;4992799;28;20190;-75
2021/03/09 01:22:41;;;;;;;4.97;3.40;;;0.80;99.90;;;;;;4993439;28;20175;-74
2021/03/09 01:25:08;;;;;;;4.97;3.67;;;0.80;99.90;;;;;;4993529;28;20179;-75
2021/03/09 01:27:34;;;;;;;4.67;2.90;;;0.80;99.90;;;;;;4993775;28;20576;-75
2021/03/09 01:29:59;;;;;;;3.13;2.50;;;0.80;99.90;;;;;;4993086;28;20502;-75
2021/03/09 01:32:25;;;;;;;4.73;3.27;;;0.80;99.90;;;;;;4991849;28;20438;-75
2021/03/09 01:34:51;;;;;;;2.80;2.50;;;0.80;99.90;;;;;;4993309;28;20189;-75
2021/03/09 01:37:17;;;;;;;3.23;2.30;;;0.80;99.90;;;;;;4993786;28;20181;-75
2021/03/09 01:39:43;;;;;;;2.77;2.20;;;0.80;99.90;;;;;;4992926;28;20430;-75
2021/03/09 01:42:08;;;;;;;3.13;2.10;;;0.80;99.90;;;;;;4992212;28;20458;-75
2021/03/09 01:44:35;;;;;;;2.60;2.20;;;0.90;99.90;;;;;;4996554;28;20286;-75
2021/03/09 01:47:02;;;;;;;2.00;1.90;;;0.90;99.90;;;;;;4997884;28;20184;-75
2021/03/09 01:49:37;;;;;;;2.07;1.97;;;0.90;99.90;;;;;;5000662;28;20560;-75
2021/03/09 01:52:06;;;;;;;2.03;1.90;;;0.90;99.90;;;;;;5011427;28;20436;-75
2021/03/09 01:54:33;;;;;;;2.07;1.90;;;0.90;99.90;;;;;;4997737;28;20438;-75
2021/03/09 01:56:59;;;;;;;1.60;1.50;;;0.90;99.90;;;;;;4997139;28;20451;-75
2021/03/09 01:59:26;;;;;;;2.33;2.23;;;1.00;99.90;;;;;;4997606;28;20490;-75
2021/03/09 02:01:52;;;;;;;2.10;2.00;;;1.00;99.90;;;;;;4998128;28;20445;-75
2021/03/09 02:04:17;;;;;;;1.70;1.57;;;1.00;99.90;;;;;;4997563;28;20435;-75
2021/03/09 02:06:43;;;;;;;2.50;2.00;;;1.10;99.90;;;;;;4997122;28;20261;-75
2021/03/09 02:09:10;;;;;;;1.80;1.70;;;1.10;99.90;;;;;;4993385;28;20207;-75
2021/03/09 02:11:38;;;;;;;1.83;1.57;;;1.10;99.90;;;;;;4994448;28;20199;-74
2021/03/09 02:14:16;;;;;;;1.70;1.60;;;1.20;99.90;;;;;;4997075;28;20434;-75
2021/03/09 02:16:47;;;;;;;1.87;1.70;;;1.20;99.90;;;;;;4997592;28;20470;-75
2021/03/09 02:19:49;;;;;;;2.10;1.90;;;1.30;99.90;;;;;;4996452;28;20434;-75
2021/03/09 02:22:46;;;;;;;2.23;1.60;;;1.30;99.90;;;;;;4997678;28;20816;-75
2021/03/09 02:25:27;;;;;;;1.50;1.40;;;1.30;99.90;;;;;;4992340;28;20436;-75
2021/03/09 02:28:11;;;;;;;2.67;1.97;;;1.40;99.90;;;;;;4996132;28;20435;-75
2021/03/09 02:30:43;;;;;;;1.60;1.50;;;1.40;99.90;;;;;;4996268;28;20471;-75
2021/03/09 02:33:20;;;;;;;3.30;1.80;;;1.50;99.90;;;;;;4997355;28;20895;-75
2021/03/09 02:35:55;;;;;;;1.60;1.50;;;1.40;99.90;;;;;;4996473;28;20457;-75
2021/03/09 02:38:23;;;;;;;1.40;1.30;;;1.40;99.90;;;;;;4994016;28;20422;-75
2021/03/09 02:40:59;;;;;;;1.37;1.27;;;1.40;99.90;;;;;;4994060;28;20431;-75
2021/03/09 02:43:27;;;;;;;2.73;1.47;;;1.40;99.90;;;;;;4995636;28;20431;-75
2021/03/09 02:45:54;;;;;;;1.37;1.37;;;1.30;99.90;;;;;;4994603;28;20754;-75
2021/03/09 02:48:22;;;;;;;1.47;1.37;;;1.40;99.90;;;;;;4997101;28;20489;-75
2021/03/09 02:50:50;;;;;;;1.57;1.47;;;1.30;99.90;;;;;;4995507;28;21013;-75
2021/03/09 02:53:15;;;;;;;1.13;1.03;;;1.30;99.90;;;;;;4996265;28;20496;-75
2021/03/09 02:55:46;;;;;;;1.70;1.60;;;1.30;99.90;;;;;;4994876;28;20442;-75
2021/03/09 02:58:18;;;;;;;3.60;1.60;;;1.30;99.90;;;;;;4996041;28;20176;-75
2021/03/09 03:00:45;;;;;;;2.50;1.73;;;1.20;99.90;;;;;;4994519;28;20469;-74
2021/03/09 03:03:15;;;;;;;1.40;1.30;;;1.20;99.90;;;;;;4998099;28;20426;-74
2021/03/09 03:05:42;;;;;;;1.43;1.30;;;1.20;99.90;;;;;;4994023;28;20526;-75
2021/03/09 03:08:09;;;;;;;1.37;1.20;;;1.20;99.90;;;;;;4991127;28;20863;-75
2021/03/09 03:10:36;;;;;;;2.10;2.00;;;1.20;99.90;;;;;;4993204;28;20457;-75
2021/03/09 03:13:06;;;;;;;1.33;1.23;;;1.20;99.90;;;;;;4995678;28;20812;-75
2021/03/09 03:15:33;;;;;;;1.60;1.50;;;1.20;99.90;;;;;;4996516;28;20430;-75
2021/03/09 03:18:00;;;;;;;2.67;1.40;;;1.20;99.90;;;;;;4995178;28;20445;-75
2021/03/09 03:20:26;;;;;;;5.23;1.80;;;1.20;99.90;;;;;;4988754;28;20427;-75
2021/03/09 03:22:54;;;;;;;2.53;1.40;;;1.20;99.90;;;;;;4996848;28;20472;-75
2021/03/09 03:25:21;;;;;;;1.60;1.13;;;1.30;99.90;;;;;;4995220;28;20442;-75
2021/03/09 03:27:48;;;;;;;6.23;1.30;;;1.30;99.90;;;;;;4996176;28;21045;-74
2021/03/09 03:30:16;;;;;;;6.47;2.00;;;1.30;99.90;;;;;;4994052;28;20466;-74
2021/03/09 03:32:42;;;;;;;4.50;2.07;;;1.20;99.90;;;;;;4995357;28;20423;-75
2021/03/09 03:35:11;;;;;;;1.60;1.50;;;1.20;99.90;;;;;;4995875;28;20806;-74
2021/03/09 03:37:38;;;;;;;2.17;1.63;;;1.20;99.90;;;;;;4994746;28;20430;-75
2021/03/09 03:40:07;;;;;;;3.60;1.70;;;1.20;99.90;;;;;;4990916;28;20930;-75
2021/03/09 03:42:33;;;;;;;1.97;1.40;;;1.30;99.90;;;;;;4994089;28;20909;-75
2021/03/09 03:44:59;;;;;;;2.80;1.93;;;1.20;99.90;;;;;;4991413;28;20451;-75
2021/03/09 03:47:25;;;;;;;1.73;1.40;;;1.20;99.90;;;;;;4993380;28;20431;-75
2021/03/09 03:49:50;;;;;;;1.67;1.57;;;1.20;99.90;;;;;;4991497;28;20464;-75
2021/03/09 03:52:29;;;;;;;1.53;1.43;;;1.20;99.90;;;;;;4990819;28;20276;-75
2021/03/09 03:55:23;;;;;;;2.50;1.70;;;1.20;99.90;;;;;;4996345;28;20176;-75
2021/03/09 03:57:49;;;;;;;1.67;1.57;;;1.30;99.90;;;;;;4993766;28;20475;-75
2021/03/09 04:00:21;;;;;;;2.57;1.57;;;1.30;99.90;;;;;;4985519;28;20445;-75
2021/03/09 04:02:50;;;;;;;1.50;1.40;;;1.20;99.90;;;;;;4994521;28;20439;-75
2021/03/09 04:05:20;;;;;;;1.90;1.70;;;1.20;99.90;;;;;;4992193;28;20490;-75
2021/03/09 04:07:47;;;;;;;2.07;1.60;;;1.30;99.90;;;;;;4991636;28;20752;-74
2021/03/09 04:10:13;;;;;;;1.33;1.33;;;1.30;99.90;;;;;;4991946;28;20463;-75
2021/03/09 04:12:39;;;;;;;2.87;1.77;;;1.30;99.90;;;;;;4992819;28;20751;-75
2021/03/09 04:15:07;;;;;;;1.33;1.33;;;1.30;99.90;;;;;;4995371;28;20300;-75
2021/03/09 04:17:34;;;;;;;1.43;1.33;;;1.30;99.90;;;;;;4986305;28;20508;-75
2021/03/09 04:20:01;;;;;;;2.80;1.50;;;1.30;99.90;;;;;;4991833;28;20537;-75
2021/03/09 04:22:29;;;;;;;2.30;1.83;;;1.40;99.90;;;;;;4994383;28;20432;-74
2021/03/09 04:24:55;;;;;;;1.57;1.47;;;1.40;99.90;;;;;;4992806;28;20854;-75
2021/03/09 04:27:21;;;;;;;7.07;2.13;;;1.40;99.90;;;;;;4994786;28;20773;-75
2021/03/09 04:29:50;;;;;;;2.80;1.80;;;1.40;99.90;;;;;;4992224;28;20463;-75
2021/03/09 04:32:16;;;;;;;2.70;1.90;;;1.50;99.90;;;;;;4994744;28;20447;-75
2021/03/09 04:34:42;;;;;;;2.80;2.27;;;1.50;99.90;;;;;;4995748;28;20471;-75
2021/03/09 04:37:09;;;;;;;1.80;1.70;;;1.50;99.90;;;;;;4995165;28;20533;-75
2021/03/09 04:39:35;;;;;;;1.83;1.73;;;1.50;99.90;;;;;;4993671;28;20879;-75
2021/03/09 04:42:00;;;;;;;1.83;1.73;;;1.50;99.90;;;;;;4993707;28;20439;-75
2021/03/09 04:44:26;;;;;;;4.77;2.43;;;1.50;99.90;;;;;;4991557;28;20438;-75
2021/03/09 04:46:52;;;;;;;2.43;2.23;;;1.50;99.90;;;;;;4993605;28;20188;-75
2021/03/09 04:49:18;;;;;;;2.07;1.97;;;1.50;99.90;;;;;;4990849;28;20251;-74
2021/03/09 04:51:46;;;;;;;5.60;2.33;;;1.50;99.90;;;;;;4993574;28;20190;-75
2021/03/09 04:54:12;;;;;;;3.13;2.00;;;1.50;99.90;;;;;;4994226;28;20455;-75
2021/03/09 04:56:38;;;;;;;3.07;1.97;;;1.50;99.90;;;;;;4994177;28;20490;-75
2021/03/09 04:59:06;;;;;;;2.97;1.80;;;1.50;99.90;;;;;;4991405;28;20216;-74
2021/03/09 05:01:32;;;;;;;3.20;2.10;;;1.60;99.90;;;;;;5007331;28;20188;-75
2021/03/09 05:03:58;;;;;;;2.30;2.10;;;1.60;99.90;;;;;;4993295;28;20434;-75
2021/03/09 05:06:24;;;;;;;2.33;1.93;;;1.50;99.90;;;;;;4993531;28;20901;-75
2021/03/09 05:08:49;;;;;;;2.40;2.17;;;1.50;99.90;;;;;;4990591;28;20288;-75
2021/03/09 05:11:15;;;;;;;2.73;2.30;;;1.50;99.90;;;;;;4991077;28;20187;-75
2021/03/09 05:13:41;;;;;;;4.27;2.27;;;1.50;99.90;;;;;;4989724;28;20266;-74
2021/03/09 05:16:06;;;;;;;2.60;2.40;;;1.50;99.90;;;;;;4993382;28;20189;-75
2021/03/09 05:18:32;;;;;;;1.90;1.80;;;1.40;99.90;;;;;;4993578;28;20241;-75
2021/03/09 05:20:58;;;;;;;2.20;2.07;;;1.40;99.90;;;;;;4989669;28;20177;-75
2021/03/09 05:23:23;;;;;;;3.43;2.40;;;1.40;99.90;;;;;;4991667;28;20176;-75
2021/03/09 05:25:49;;;;;;;3.47;2.83;;;1.40;99.90;;;;;;4995221;28;20266;-75
2021/03/09 05:28:14;;;;;;;2.10;2.00;;;1.40;99.90;;;;;;4992312;28;20180;-74
2021/03/09 05:30:40;;;;;;;6.07;2.80;;;1.40;99.90;;;;;;4992472;28;20246;-75
2021/03/09 05:33:06;;;;;;;6.37;3.73;;;1.40;99.90;;;;;;4993335;28;20184;-75
2021/03/09 05:35:31;;;;;;;4.80;2.40;;;1.40;99.90;;;;;;4992907;28;20186;-75
2021/03/09 05:37:57;;;;;;;4.20;2.80;;;1.40;99.90;;;;;;4992410;28;20277;-75
2021/03/09 05:40:23;;;;;;;4.03;2.97;;;1.40;99.90;;;;;;4992165;28;20200;-75
2021/03/09 05:42:53;;;;;;;3.33;3.00;;;1.40;99.90;;;;;;4995810;28;20184;-74
2021/03/09 05:45:20;;;;;;;3.30;3.00;;;1.40;99.90;;;;;;4991487;28;20226;-75
2021/03/09 05:47:46;;;;;;;4.00;2.60;;;1.30;99.90;;;;;;4990376;28;20442;-75
2021/03/09 05:50:13;;;;;;;3.97;3.00;;;1.20;99.90;;;;;;4988549;28;20528;-74
2021/03/09 05:52:40;;;;;;;5.37;2.67;;;1.20;99.90;;;;;;4989453;28;20524;-75
2021/03/09 05:55:08;;;;;;;3.70;2.60;;;1.20;99.90;;;;;;4990912;28;20430;-74
2021/03/09 05:57:34;;;;;;;4.17;2.70;;;1.20;99.90;;;;;;4990572;28;20878;-75
2021/03/09 06:00:01;;;;;;;3.27;2.57;;;1.10;99.90;;;;;;4986380;28;20537;-74
2021/03/09 06:02:29;;;;;;;3.33;2.23;;;1.10;99.90;;;;;;4988810;28;20584;-74
2021/03/09 06:04:55;;;;;;;2.50;2.30;;;1.10;99.90;;;;;;4988130;28;20476;-75
2021/03/09 06:07:21;;;;;;;2.80;2.50;;;1.10;99.90;;;;;;4990872;28;20445;-74
2021/03/09 06:09:47;;;;;;;3.00;2.70;;;1.10;99.90;;;;;;4990960;28;20902;-74
2021/03/09 06:12:17;;;;;;;7.93;3.17;;;1.00;99.90;;;;;;4989562;28;20175;-74
2021/03/09 06:14:51;;;;;;;2.60;2.30;;;1.00;99.90;;;;;;4989363;28;20756;-74
2021/03/09 06:17:24;;;;;;;4.50;2.70;;;0.90;99.90;;;;;;4994650;28;20436;-74
2021/03/09 06:19:50;;;;;;;2.60;2.50;;;0.90;99.90;;;;;;4986501;28;20419;-74
2021/03/09 06:22:17;;;;;;;3.03;2.80;;;0.90;99.90;;;;;;4990281;28;20457;-74
2021/03/09 06:24:45;;;;;;;7.20;3.10;;;0.90;99.90;;;;;;4988391;28;22285;-74
2021/03/09 06:27:28;;;;;;;4.17;3.53;;;0.90;99.90;;;;;;4987159;28;20433;-74
2021/03/09 06:29:57;;;;;;;2.90;2.20;;;0.90;99.90;;;;;;4986022;28;20464;-74
2021/03/09 06:32:24;;;;;;;4.30;2.63;;;0.90;99.90;;;;;;4989343;28;20429;-74
2021/03/09 06:34:52;;;;;;;4.60;3.50;;;0.90;99.90;;;;;;4987710;28;20429;-74
2021/03/09 06:37:23;;;;;;;3.50;3.20;;;0.90;99.90;;;;;;4985275;28;20552;-74
2021/03/09 06:40:05;;;;;;;3.67;3.33;;;1.00;99.90;;;;;;4989131;28;20573;-74
2021/03/09 06:42:31;;;;;;;4.53;4.13;;;0.90;99.90;;;;;;4987484;28;20468;-74
2021/03/09 06:45:04;;;;;;;8.03;3.73;;;0.80;99.90;;;;;;4989509;28;20464;-74
2021/03/09 06:47:40;;;;;;;4.90;3.50;;;0.80;99.90;;;;;;4985113;28;20249;-74
2021/03/09 06:50:12;;;;;;;4.60;3.97;;;0.80;99.90;;;;;;4992337;28;20464;-74
2021/03/09 06:52:39;;;;;;;3.67;3.37;;;0.80;99.90;;;;;;4993978;28;20464;-74
2021/03/09 06:55:08;;;;;;;5.57;3.90;;;0.80;99.90;;;;;;4992726;28;20521;-75
2021/03/09 06:57:34;;;;;;;6.27;3.70;;;0.90;99.90;;;;;;4992875;28;21002;-75
2021/03/09 06:59:59;;;;;;;5.53;4.97;;;0.80;99.90;;;;;;4993092;28;20541;-75
2021/03/09 07:02:27;;;;;;;4.97;4.10;;;0.80;99.90;;;;;;4994553;28;20201;-75
2021/03/09 07:05:04;;;;;;;5.47;4.73;;;0.80;99.90;;;;;;4993303;28;20171;-75
2021/03/09 07:07:38;;;;;;;5.63;4.77;;;0.80;99.90;;;;;;4991220;28;20434;-74
2021/03/09 07:10:13;;;;;;;8.63;4.70;;;0.90;99.90;;;;;;4991486;28;20468;-75
2021/03/09 07:12:41;;;;;;;6.17;4.17;;;0.90;99.90;;;;;;4991422;28;20520;-75
2021/03/09 07:15:09;;;;;;;8.00;5.10;;;1.00;99.90;;;;;;4991248;28;20426;-75
2021/03/09 07:17:37;;;;;;;5.80;4.37;;;1.00;99.90;;;;;;4993615;28;20448;-75
2021/03/09 07:20:08;;;;;;;4.37;4.07;;;0.80;99.90;;;;;;4993378;28;20472;-75
2021/03/09 07:22:36;;;;;;;10.70;4.23;;;0.80;99.90;;;;;;4992601;28;20441;-75
2021/03/09 07:25:01;;;;;;;5.30;4.63;;;0.90;99.90;;;;;;4986937;28;20436;-74
2021/03/09 07:27:53;;;;;;;7.50;5.17;;;0.90;99.90;;;;;;4991873;28;20476;-75
2021/03/09 07:30:21;;;;;;;6.97;4.17;;;0.90;99.90;;;;;;4993225;28;20326;-75
2021/03/09 07:32:49;;;;;;;6.90;4.57;;;0.90;99.90;;;;;;4990859;28;20455;-75
2021/03/09 07:35:15;;;;;;;5.83;4.57;;;0.90;99.90;;;;;;4992579;28;20434;-74
2021/03/09 07:37:42;;;;;;;6.20;4.17;;;1.00;99.90;;;;;;4993790;28;20424;-75
2021/03/09 07:40:17;;;;;;;7.70;5.20;;;1.00;99.90;;;;;;4991669;28;20473;-75
2021/03/09 07:42:43;;;;;;;5.53;4.27;;;1.00;99.90;;;;;;4993500;28;20440;-75
2021/03/09 07:45:10;;;;;;;6.00;4.40;;;1.00;99.90;;;;;;4993165;28;20449;-75
2021/03/09 07:47:43;;;;;;;4.50;3.87;;;0.90;99.90;;;;;;4994097;28;20529;-75
2021/03/09 07:50:13;;;;;;;6.73;4.87;;;1.00;99.90;;;;;;4991180;28;21072;-75
2021/03/09 07:52:39;;;;;;;6.10;4.17;;;1.00;99.90;;;;;;4993133;28;20448;-75
2021/03/09 07:55:04;;;;;;;5.87;4.20;;;1.10;99.90;;;;;;4993938;28;20436;-75
2021/03/09 07:57:31;;;;;;;5.73;5.10;;;1.10;99.90;;;;;;4991363;28;20630;-75
2021/03/09 08:00:05;;;;;;;7.53;4.77;;;1.10;99.90;;;;;;4993379;28;20187;-74
2021/03/09 08:02:57;;;;;;;6.97;5.00;;;1.10;99.90;;;;;;4993733;28;20527;-75
2021/03/09 08:05:25;;;;;;;5.83;4.47;;;1.10;99.90;;;;;;4992689;28;20805;-75
2021/03/09 08:08:05;;;;;;;9.10;5.20;;;1.10;99.90;;;;;;4991199;28;20989;-75
2021/03/09 08:10:33;;;;;;;8.47;4.73;;;1.10;99.90;;;;;;4992109;28;20786;-76
2021/03/09 08:13:07;;;;;;;4.87;3.90;;;1.00;99.90;;;;;;4991475;28;20517;-75
2021/03/09 08:15:38;;;;;;;7.70;4.20;;;1.00;99.90;;;;;;4993512;28;20771;-75
2021/03/09 08:18:21;;;;;;;7.90;5.10;;;1.00;99.90;;;;;;4992379;28;20442;-75
2021/03/09 08:20:53;;;;;;;5.83;4.57;;;1.00;99.90;;;;;;4991049;28;20438;-75
2021/03/09 08:23:31;;;;;;;5.10;4.63;;;1.10;99.90;;;;;;4989183;28;20444;-75
2021/03/09 08:26:06;;;;;;;4.83;4.07;;;1.20;99.90;;;;;;4988316;28;20530;-75
2021/03/09 08:28:41;;;;;;;10.23;5.07;;;1.20;99.90;;;;;;4990911;28;20951;-74
2021/03/09 08:31:13;;;;;;;8.87;5.27;;;1.20;99.90;;;;;;4987954;28;20438;-75
2021/03/09 08:33:45;;;;;;;5.20;4.70;;;1.20;99.90;;;;;;4989809;28;20430;-75
2021/03/09 08:36:23;;;;;;;8.27;4.70;;;1.20;99.90;;;;;;4985791;28;20486;-75
2021/03/09 08:39:11;;;;;;;7.33;5.27;;;1.30;99.90;;;;;;4983679;28;20427;-75
2021/03/09 08:41:41;;;;;;;8.30;5.77;;;1.30;99.90;;;;;;4987099;28;20410;-75
2021/03/09 08:44:19;;;;;;;9.80;5.07;;;1.30;99.90;;;;;;4984502;28;20469;-75
2021/03/09 08:46:51;;;;;;;12.67;5.37;;;1.30;99.90;;;;;;4982519;28;20426;-75
2021/03/09 08:49:39;;;;;;;8.40;5.40;;;1.30;99.90;;;;;;4985319;28;20465;-75
2021/03/09 08:52:18;;;;;;;9.50;5.50;;;1.30;99.90;;;;;;4986522;28;20461;-75
2021/03/09 08:54:51;;;;;;;7.50;5.20;;;1.30;99.90;;;;;;4990686;28;20430;-75
2021/03/09 08:57:22;;;;;;;5.50;4.93;;;1.30;99.90;;;;;;4986961;28;20441;-75
2021/03/09 08:59:50;;;;;;;9.03;5.40;;;1.40;99.90;;;;;;4985156;28;20504;-76
2021/03/09 09:02:21;;;;;;;8.50;6.03;;;1.40;99.90;;;;;;4989075;28;20439;-75
2021/03/09 09:04:53;;;;;;;9.33;6.77;;;1.40;99.90;;;;;;4989100;28;20450;-76
2021/03/09 09:07:37;;;;;;;8.87;6.33;;;1.60;99.90;;;;;;4982893;28;20513;-75
2021/03/09 09:10:18;;;;;;;7.73;6.47;;;1.50;99.90;;;;;;4987555;28;21266;-75
2021/03/09 09:12:45;;;;;;;13.53;7.23;;;1.50;99.90;;;;;;4988123;28;20445;-75
2021/03/09 09:15:11;;;;;;;8.33;6.13;;;1.50;99.90;;;;;;4987522;28;20437;-75
2021/03/09 09:17:39;;;;;;;11.30;7.13;;;1.50;99.90;;;;;;4984781;28;20422;-75
2021/03/09 09:20:11;;;;;;;10.33;6.90;;;1.50;99.90;;;;;;4990215;28;20911;-75
2021/03/09 09:22:39;;;;;;;10.73;8.13;;;1.50;99.90;;;;;;4989766;28;20459;-75
2021/03/09 09:25:10;;;;;;;12.03;7.13;;;1.50;99.90;;;;;;4988028;28;20550;-75
2021/03/09 09:27:40;;;;;;;12.70;8.50;;;1.50;99.90;;;;;;4983716;28;20438;-74
2021/03/09 09:30:06;;;;;;;13.80;8.00;;;1.50;99.90;;;;;;4986891;28;20839;-75
2021/03/09 09:32:46;;;;;;;16.00;8.77;;;1.60;99.90;;;;;;4987488;28;20969;-74
2021/03/09 09:35:12;;;;;;;20.67;9.00;;;1.60;99.90;;;;;;4984025;28;20422;-75
2021/03/09 09:37:49;;;;;;;13.33;8.00;;;1.70;99.90;;;;;;4989482;28;20462;-75
2021/03/09 09:40:17;;;;;;;16.40;9.03;;;1.70;99.90;;;;;;4988740;28;20448;-75
2021/03/09 09:43:10;;;;;;;11.87;7.67;;;1.70;99.90;;;;;;4990862;28;20442;-75
2021/03/09 09:45:48;;;;;;;15.20;8.50;;;1.70;99.90;;;;;;4987523;28;20647;-76
2021/03/09 09:48:21;;;;;;;17.53;8.90;;;1.70;99.90;;;;;;4985528;28;20450;-75
2021/03/09 09:50:52;;;;;;;17.03;9.33;;;1.80;99.90;;;;;;4990854;28;20926;-75
2021/03/09 09:53:37;;;;;;;13.30;8.27;;;1.90;99.90;;;;;;4990629;28;20441;-75
2021/03/09 09:56:06;;;;;;;16.40;8.40;;;1.90;99.90;;;;;;4992126;28;20943;-75
2021/03/09 09:58:46;;;;;;;19.03;9.17;;;1.90;99.90;;;;;;4991642;28;20434;-75
2021/03/09 10:01:22;;;;;;;14.13;8.73;;;1.90;99.90;;;;;;4989923;28;20456;-75
2021/03/09 10:04:05;;;;;;;12.83;7.30;;;1.90;99.90;;;;;;4989990;28;20522;-75
2021/03/09 10:06:47;;;;;;;11.07;8.50;;;1.90;99.90;;;;;;4993339;28;20436;-75
2021/03/09 10:09:22;;;;;;;15.17;8.30;;;1.90;99.90;;;;;;4995169;28;20458;-75
2021/03/09 10:11:56;;;;;;;17.20;9.97;;;2.00;99.90;;;;;;4994357;28;20903;-74
2021/03/09 10:14:24;;;;;;;14.97;8.40;;;2.00;99.90;;;;;;4994766;28;20422;-75
2021/03/09 10:16:51;;;;;;;17.80;9.20;;;2.00;99.90;;;;;;4987490;28;20932;-75
2021/03/09 10:19:18;;;;;;;20.73;9.30;;;2.10;99.90;;;;;;4995290;28;20439;-74
2021/03/09 10:21:49;;;;;;;11.57;8.77;;;2.10;99.90;;;;;;4994727;28;20415;-74
2021/03/09 10:24:23;;;;;;;14.03;8.63;;;2.20;99.90;;;;;;4993829;28;20884;-74
2021/03/09 10:26:50;;;;;;;13.63;8.20;;;2.20;99.90;;;;;;4994712;28;20419;-75
2021/03/09 10:29:20;;;;;;;12.00;8.20;;;2.30;99.90;;;;;;4994732;28;20842;-74
2021/03/09 10:31:50;;;;;;;14.10;7.83;;;2.20;99.90;;;;;;4993307;28;20526;-74
2021/03/09 10:34:18;;;;;;;14.20;8.97;;;2.30;99.90;;;;;;4993862;28;20490;-75
2021/03/09 10:37:01;;;;;;;13.23;8.10;;;2.30;99.90;;;;;;4992950;28;20836;-74
2021/03/09 10:39:28;;;;;;;13.53;8.90;;;2.30;99.90;;;;;;4990989;28;20473;-74
2021/03/09 10:41:54;;;;;;;14.97;7.73;;;2.30;99.90;;;;;;4992774;28;20436;-75
2021/03/09 10:44:31;;;;;;;10.73;7.33;;;2.30;99.90;;;;;;4994984;28;20506;-74
2021/03/09 10:46:59;;;;;;;14.53;8.43;;;2.30;99.90;;;;;;4994104;28;20186;-75
2021/03/09 10:49:26;;;;;;;8.47;6.50;;;2.20;99.90;;;;;;4994011;28;20494;-75
2021/03/09 10:51:56;;;;;;;11.10;7.47;;;2.30;99.90;;;;;;4993849;28;20441;-75
2021/03/09 10:54:22;;;;;;;12.67;7.50;;;2.20;99.90;;;;;;4993922;28;20442;-74
2021/03/09 10:56:47;;;;;;;11.37;7.87;;;2.20;99.90;;;;;;4990685;28;20423;-74
2021/03/09 10:59:13;;;;;;;10.67;7.73;;;2.10;99.90;;;;;;4993823;28;20189;-75
2021/03/09 11:01:39;;;;;;;13.47;8.27;;;2.10;99.90;;;;;;4994139;28;20195;-74
2021/03/09 11:04:05;;;;;;;11.23;7.77;;;2.20;99.90;;;;;;4994102;28;21132;-75
2021/03/09 11:06:30;;;;;;;11.77;7.13;;;2.20;99.90;;;;;;4993330;28;20184;-75
2021/03/09 11:08:56;;;;;;;13.30;7.80;;;2.30;99.90;;;;;;4993123;28;20188;-75
2021/03/09 11:11:21;;;;;;;14.67;8.10;;;2.30;99.90;;;;;;4992536;28;20184;-75
2021/03/09 11:13:47;;;;;;;15.90;7.40;;;2.30;99.90;;;;;;4990542;28;20255;-75
2021/03/09 11:16:13;;;;;;;12.63;7.43;;;2.40;99.90;;;;;;4990677;28;20202;-74
2021/03/09 11:18:40;;;;;;;13.50;8.30;;;2.40;99.90;;;;;;4992442;28;20187;-75
2021/03/09 11:21:05;;;;;;;12.73;7.90;;;2.40;99.90;;;;;;4994824;28;20193;-75
2021/03/09 11:23:31;;;;;;;12.00;6.70;;;2.50;99.90;;;;;;4995186;28;20418;-75
2021/03/09 11:25:57;;;;;;;14.70;8.30;;;2.40;99.90;;;;;;4994144;28;20233;-75
2021/03/09 11:28:22;;;;;;;10.50;6.77;;;2.30;99.90;;;;;;4994003;28;20186;-76
2021/03/09 11:30:48;;;;;;;9.70;6.20;;;2.30;99.90;;;;;;4992205;28;20222;-75
2021/03/09 11:33:14;;;;;;;11.07;7.93;;;2.40;99.90;;;;;;4994042;28;20183;-76
2021/03/09 11:35:39;;;;;;;9.03;7.40;;;2.40;99.90;;;;;;4994229;28;20176;-75
2021/03/09 11:38:05;;;;;;;11.50;6.93;;;2.40;99.90;;;;;;4990131;28;20184;-75
2021/03/09 11:40:30;;;;;;;12.53;6.93;;;2.40;99.90;;;;;;4992131;28;20263;-75
2021/03/09 11:42:56;;;;;;;10.90;7.30;;;2.40;99.90;;;;;;4992613;28;20193;-75
2021/03/09 11:45:22;;;;;;;12.13;7.80;;;2.50;99.90;;;;;;4993420;28;20185;-75
2021/03/09 11:47:47;;;;;;;9.77;7.00;;;2.50;99.90;;;;;;4990719;28;20245;-75
2021/03/09 11:50:13;;;;;;;10.07;7.40;;;2.50;99.90;;;;;;4993744;28;20222;-76
2021/03/09 11:52:39;;;;;;;11.30;7.67;;;2.50;99.90;;;;;;4992370;28;20709;-75
2021/03/09 11:55:07;;;;;;;18.60;9.30;;;2.50;99.90;;;;;;4991414;28;20534;-75
2021/03/09 11:57:32;;;;;;;16.57;8.07;;;2.50;99.90;;;;;;4992273;28;20176;-75
2021/03/09 11:59:59;;;;;;;12.47;7.90;;;2.50;99.90;;;;;;4993514;28;20453;-75
2021/03/09 12:02:25;;;;;;;12.30;8.17;;;2.50;99.90;;;;;;4992129;28;20200;-76
2021/03/09 12:04:51;;;;;;;9.23;7.27;;;2.40;99.90;;;;;;4989534;28;20437;-76
2021/03/09 12:07:18;;;;;;;10.30;7.90;;;2.50;99.90;;;;;;4989442;28;20207;-76
2021/03/09 12:09:43;;;;;;;12.20;7.33;;;2.60;99.90;;;;;;4988718;28;20207;-76
2021/03/09 12:12:09;;;;;;;11.73;8.00;;;2.50;99.90;;;;;;4989178;28;20433;-76
2021/03/09 12:14:35;;;;;;;13.00;8.10;;;2.50;99.90;;;;;;4989336;28;20200;-76
2021/03/09 12:17:00;;;;;;;15.50;7.80;;;2.40;99.90;;;;;;4990560;28;20523;-76
2021/03/09 12:19:26;;;;;;;15.90;7.83;;;2.40;99.90;;;;;;4988515;28;20228;-76
2021/03/09 12:21:52;;;;;;;11.57;7.37;;;2.40;99.90;;;;;;4989982;28;20183;-76
2021/03/09 12:24:17;;;;;;;15.53;8.60;;;2.40;99.90;;;;;;4987213;28;20191;-76
2021/03/09 12:26:43;;;;;;;14.27;8.37;;;2.50;99.90;;;;;;4989534;28;20210;-75
2021/03/09 12:29:09;;;;;;;9.80;7.40;;;2.60;99.90;;;;;;4989427;28;20204;-76
2021/03/09 12:31:35;;;;;;;10.73;8.00;;;2.50;99.90;;;;;;4983826;28;20271;-76
2021/03/09 12:34:00;;;;;;;11.37;7.43;;;2.50;99.90;;;;;;4988193;28;20190;-76
2021/03/09 12:36:26;;;;;;;11.67;8.17;;;2.40;99.90;;;;;;4988859;28;20179;-76
2021/03/09 12:38:52;;;;;;;11.33;7.93;;;2.40;99.90;;;;;;4985921;28;20179;-76
2021/03/09 12:41:17;;;;;;;14.70;7.50;;;2.40;99.90;;;;;;4986286;28;20612;-76
2021/03/09 12:43:43;;;;;;;19.03;10.87;;;2.50;99.90;;;;;;4989131;28;20539;-76
2021/03/09 12:46:09;;;;;;;12.53;8.20;;;2.50;99.90;;;;;;4988882;28;20231;-76
2021/03/09 12:48:35;;;;;;;15.27;9.63;;;2.50;99.90;;;;;;4992076;28;20449;-75
2021/03/09 12:51:00;;;;;;;14.87;8.63;;;2.50;99.90;;;;;;4990552;28;20307;-75
2021/03/09 12:53:26;;;;;;;11.17;7.50;;;2.50;99.90;;;;;;4989529;28;20172;-76
2021/03/09 12:55:51;;;;;;;12.10;7.40;;;2.50;99.90;;;;;;4986900;28;20190;-76
2021/03/09 12:58:17;;;;;;;11.80;7.70;;;2.50;99.90;;;;;;4987530;28;20490;-75
2021/03/09 13:00:43;;;;;;;15.30;9.27;;;2.50;99.90;;;;;;4991967;28;20202;-76